WTB9CK EKVG-BIRK
Flight info
| Callsign | WTB9CK |
|---|---|
| Flight time | 1h 20m |
| Altitude | 26000 |
| Route | MY DCT INACO/M051F240 Y194 NASBU NASBU1V |
| Aircraft | B350/L-SBGRW/S |
Departure
| Time | 2026-04-21 18:50 |
|---|---|
| Airport | Vágar Airport (EKVG) |
Arrival
| Time | 2026-04-21 20:10 |
|---|---|
| Airport | Reykjavík Domestic Airport (BIRK) |
| Time | Latitude | Longitude | Altitude | Speed | Heading |
|---|---|---|---|---|---|
| 2026-04-21 18:44 | 62.06754 | -7.28208 | 283 ft | 0 kts | 72° |
| 2026-04-21 18:46 | 62.06754 | -7.28200 | 283 ft | 1 kts | 105° |
| 2026-04-21 18:46 | 62.06721 | -7.28182 | 283 ft | 7 kts | 149° |
| 2026-04-21 18:46 | 62.06658 | -7.28101 | 283 ft | 11 kts | 170° |
| 2026-04-21 18:47 | 62.06548 | -7.28102 | 283 ft | 15 kts | 199° |
| 2026-04-21 18:47 | 62.06454 | -7.28100 | 286 ft | 13 kts | 121° |
| 2026-04-21 18:47 | 62.06397 | -7.27874 | 288 ft | 16 kts | 117° |
| 2026-04-21 18:47 | 62.06329 | -7.27599 | 286 ft | 20 kts | 120° |
| 2026-04-21 18:48 | 62.06243 | -7.27250 | 277 ft | 24 kts | 118° |
| 2026-04-21 18:48 | 62.06150 | -7.26873 | 267 ft | 24 kts | 117° |
| 2026-04-21 18:48 | 62.06072 | -7.26560 | 256 ft | 19 kts | 117° |
| 2026-04-21 18:48 | 62.05998 | -7.26260 | 246 ft | 15 kts | 116° |
| 2026-04-21 18:49 | 62.05952 | -7.26065 | 243 ft | 11 kts | 109° |
| 2026-04-21 18:49 | 62.05946 | -7.25997 | 242 ft | 2 kts | 125° |
| 2026-04-21 18:49 | 62.05938 | -7.26025 | 242 ft | 4 kts | 302° |
| 2026-04-21 18:49 | 62.06195 | -7.27066 | 277 ft | 105 kts | 300° |
| 2026-04-21 18:50 | 62.06587 | -7.28815 | 832 ft | 113 kts | 300° |
| 2026-04-21 18:50 | 62.06974 | -7.30559 | 1494 ft | 117 kts | 294° |
| 2026-04-21 18:50 | 62.07249 | -7.32584 | 2060 ft | 132 kts | 286° |
| 2026-04-21 18:50 | 62.07513 | -7.34710 | 2646 ft | 142 kts | 288° |
| 2026-04-21 18:51 | 62.07806 | -7.36937 | 3217 ft | 151 kts | 289° |
| 2026-04-21 18:51 | 62.08139 | -7.39401 | 3814 ft | 160 kts | 289° |
| 2026-04-21 18:51 | 62.08470 | -7.41819 | 4319 ft | 170 kts | 289° |
| 2026-04-21 18:51 | 62.08820 | -7.44394 | 4791 ft | 180 kts | 289° |
| 2026-04-21 18:52 | 62.09180 | -7.47172 | 5275 ft | 189 kts | 289° |
| 2026-04-21 18:52 | 62.09548 | -7.50008 | 5744 ft | 196 kts | 289° |
| 2026-04-21 18:52 | 62.09936 | -7.52999 | 6200 ft | 202 kts | 289° |
| 2026-04-21 18:52 | 62.10337 | -7.56091 | 6684 ft | 210 kts | 289° |
| 2026-04-21 18:53 | 62.10817 | -7.59198 | 7141 ft | 215 kts | 296° |
| 2026-04-21 18:53 | 62.11499 | -7.62244 | 7618 ft | 220 kts | 300° |
| 2026-04-21 18:53 | 62.12218 | -7.65365 | 8003 ft | 228 kts | 299° |
| 2026-04-21 18:53 | 62.12944 | -7.68522 | 8527 ft | 228 kts | 300° |
| 2026-04-21 18:54 | 62.13684 | -7.71734 | 9056 ft | 227 kts | 300° |
| 2026-04-21 18:54 | 62.14410 | -7.74890 | 9552 ft | 228 kts | 300° |
| 2026-04-21 18:54 | 62.15165 | -7.78167 | 10025 ft | 229 kts | 300° |
| 2026-04-21 18:54 | 62.15886 | -7.81302 | 10454 ft | 231 kts | 301° |
| 2026-04-21 18:55 | 62.16369 | -7.83407 | 10724 ft | 232 kts | 301° |
| 2026-04-21 18:55 | 62.17325 | -7.87574 | 11237 ft | 235 kts | 301° |
| 2026-04-21 18:55 | 62.18052 | -7.90751 | 11633 ft | 239 kts | 301° |
| 2026-04-21 18:55 | 62.18796 | -7.94006 | 12074 ft | 242 kts | 301° |
| 2026-04-21 18:56 | 62.19548 | -7.97300 | 12527 ft | 243 kts | 301° |
| 2026-04-21 18:56 | 62.20329 | -8.00727 | 12982 ft | 245 kts | 301° |
| 2026-04-21 18:56 | 62.21078 | -8.04019 | 13397 ft | 246 kts | 302° |
| 2026-04-21 18:56 | 62.21829 | -8.07324 | 13790 ft | 248 kts | 302° |
| 2026-04-21 18:57 | 62.22580 | -8.10634 | 14175 ft | 250 kts | 302° |
| 2026-04-21 18:57 | 62.23370 | -8.14120 | 14555 ft | 252 kts | 302° |
| 2026-04-21 18:57 | 62.24175 | -8.17680 | 14916 ft | 255 kts | 302° |
| 2026-04-21 18:57 | 62.24972 | -8.21213 | 15272 ft | 257 kts | 302° |
| 2026-04-21 18:58 | 62.25820 | -8.24973 | 15639 ft | 259 kts | 302° |
| 2026-04-21 18:58 | 62.26644 | -8.28640 | 15995 ft | 262 kts | 302° |
| 2026-04-21 18:58 | 62.27475 | -8.32348 | 16416 ft | 265 kts | 302° |
| 2026-04-21 18:58 | 62.28344 | -8.36222 | 16635 ft | 276 kts | 302° |
| 2026-04-21 18:59 | 62.29302 | -8.40485 | 16666 ft | 293 kts | 301° |
| 2026-04-21 18:59 | 62.30271 | -8.44816 | 16667 ft | 306 kts | 301° |
| 2026-04-21 18:59 | 62.31261 | -8.49259 | 16664 ft | 315 kts | 301° |
| 2026-04-21 18:59 | 62.32249 | -8.53704 | 16663 ft | 322 kts | 301° |
| 2026-04-21 19:00 | 62.33251 | -8.58227 | 16761 ft | 324 kts | 301° |
| 2026-04-21 19:00 | 62.34224 | -8.62642 | 17139 ft | 317 kts | 301° |
| 2026-04-21 19:00 | 62.35196 | -8.67056 | 17524 ft | 311 kts | 300° |
| 2026-04-21 19:00 | 62.36153 | -8.71405 | 17921 ft | 306 kts | 300° |
| 2026-04-21 19:01 | 62.37068 | -8.75569 | 18314 ft | 301 kts | 300° |
| 2026-04-21 19:01 | 62.37962 | -8.79641 | 18707 ft | 297 kts | 300° |
| 2026-04-21 19:01 | 62.38828 | -8.83593 | 19103 ft | 293 kts | 300° |
| 2026-04-21 19:01 | 62.39731 | -8.87717 | 19525 ft | 293 kts | 300° |
| 2026-04-21 19:02 | 62.40639 | -8.91871 | 19955 ft | 293 kts | 300° |
| 2026-04-21 19:02 | 62.41547 | -8.96036 | 20383 ft | 292 kts | 300° |
| 2026-04-21 19:02 | 62.42457 | -9.00219 | 20816 ft | 291 kts | 300° |
| 2026-04-21 19:02 | 62.43354 | -9.04348 | 21245 ft | 290 kts | 301° |
| 2026-04-21 19:03 | 62.44246 | -9.08464 | 21675 ft | 289 kts | 301° |
| 2026-04-21 19:03 | 62.45123 | -9.12523 | 22102 ft | 287 kts | 301° |
| 2026-04-21 19:03 | 62.46004 | -9.16605 | 22489 ft | 288 kts | 301° |
| 2026-04-21 19:03 | 62.46594 | -9.19344 | 22760 ft | 290 kts | 301° |
| 2026-04-21 19:04 | 62.47796 | -9.24939 | 23344 ft | 293 kts | 301° |
| 2026-04-21 19:04 | 62.48663 | -9.28985 | 23781 ft | 294 kts | 301° |
| 2026-04-21 19:04 | 62.49587 | -9.33301 | 24206 ft | 295 kts | 301° |
| 2026-04-21 19:04 | 62.50502 | -9.37584 | 24597 ft | 297 kts | 301° |
| 2026-04-21 19:05 | 62.51438 | -9.41971 | 24971 ft | 300 kts | 301° |
| 2026-04-21 19:05 | 62.52394 | -9.46462 | 25349 ft | 302 kts | 301° |
| 2026-04-21 19:05 | 62.53351 | -9.50970 | 25693 ft | 305 kts | 300° |
| 2026-04-21 19:05 | 62.54349 | -9.55681 | 26074 ft | 306 kts | 300° |
| 2026-04-21 19:06 | 62.55344 | -9.60391 | 26434 ft | 308 kts | 301° |
| 2026-04-21 19:06 | 62.56266 | -9.64759 | 26622 ft | 315 kts | 300° |
| 2026-04-21 19:06 | 62.57279 | -9.69558 | 26646 ft | 327 kts | 299° |
| 2026-04-21 19:06 | 62.58296 | -9.74391 | 26650 ft | 337 kts | 299° |
| 2026-04-21 19:07 | 62.59437 | -9.79834 | 26645 ft | 347 kts | 299° |
| 2026-04-21 19:07 | 62.60620 | -9.85491 | 26648 ft | 353 kts | 299° |
| 2026-04-21 19:07 | 62.61808 | -9.91194 | 26641 ft | 356 kts | 298° |
| 2026-04-21 19:07 | 62.63006 | -9.96969 | 26639 ft | 355 kts | 299° |
| 2026-04-21 19:08 | 62.64196 | -10.02718 | 26640 ft | 353 kts | 298° |
| 2026-04-21 19:08 | 62.65374 | -10.08420 | 26651 ft | 352 kts | 298° |
| 2026-04-21 19:08 | 62.66547 | -10.14117 | 26646 ft | 351 kts | 298° |
| 2026-04-21 19:08 | 62.67713 | -10.19795 | 26653 ft | 350 kts | 298° |
| 2026-04-21 19:09 | 62.68865 | -10.25417 | 26649 ft | 350 kts | 298° |
| 2026-04-21 19:09 | 62.70000 | -10.30976 | 26645 ft | 349 kts | 298° |
| 2026-04-21 19:09 | 62.71138 | -10.36558 | 26649 ft | 349 kts | 298° |
| 2026-04-21 19:09 | 62.72275 | -10.42158 | 26650 ft | 349 kts | 298° |
| 2026-04-21 19:10 | 62.73407 | -10.47743 | 26648 ft | 349 kts | 298° |
| 2026-04-21 19:10 | 62.74536 | -10.53332 | 26648 ft | 348 kts | 298° |
| 2026-04-21 19:10 | 62.75677 | -10.58990 | 26649 ft | 348 kts | 298° |
| 2026-04-21 19:10 | 62.76809 | -10.64624 | 26639 ft | 348 kts | 298° |
| 2026-04-21 19:11 | 62.77927 | -10.70202 | 26647 ft | 348 kts | 297° |
| 2026-04-21 19:11 | 62.79036 | -10.75750 | 26639 ft | 348 kts | 297° |
| 2026-04-21 19:11 | 62.80147 | -10.81325 | 26644 ft | 348 kts | 297° |
| 2026-04-21 19:11 | 62.81285 | -10.87054 | 26644 ft | 348 kts | 297° |
| 2026-04-21 19:12 | 62.82037 | -10.90843 | 26644 ft | 348 kts | 297° |
| 2026-04-21 19:12 | 62.83519 | -10.98336 | 26646 ft | 348 kts | 297° |
| 2026-04-21 19:12 | 62.84639 | -11.04019 | 26646 ft | 348 kts | 297° |
| 2026-04-21 19:12 | 62.85765 | -11.09747 | 26642 ft | 348 kts | 297° |
| 2026-04-21 19:13 | 62.86859 | -11.15333 | 26649 ft | 348 kts | 297° |
| 2026-04-21 19:13 | 62.87970 | -11.21018 | 26644 ft | 348 kts | 297° |
| 2026-04-21 19:13 | 62.89080 | -11.26710 | 26648 ft | 348 kts | 297° |
| 2026-04-21 19:13 | 62.90170 | -11.32321 | 26650 ft | 348 kts | 297° |
| 2026-04-21 19:14 | 62.91268 | -11.37982 | 26649 ft | 348 kts | 297° |
| 2026-04-21 19:14 | 62.92351 | -11.43587 | 26650 ft | 348 kts | 297° |
| 2026-04-21 19:14 | 62.93425 | -11.49162 | 26649 ft | 348 kts | 297° |
| 2026-04-21 19:14 | 62.94497 | -11.54741 | 26650 ft | 348 kts | 297° |
| 2026-04-21 19:15 | 62.95575 | -11.60361 | 26651 ft | 348 kts | 297° |
| 2026-04-21 19:15 | 62.96646 | -11.65969 | 26646 ft | 348 kts | 296° |
| 2026-04-21 19:15 | 62.97695 | -11.71472 | 26643 ft | 349 kts | 296° |
| 2026-04-21 19:15 | 62.98753 | -11.77039 | 26646 ft | 348 kts | 296° |
| 2026-04-21 19:16 | 62.99821 | -11.82676 | 26648 ft | 348 kts | 296° |
| 2026-04-21 19:16 | 63.00891 | -11.88337 | 26651 ft | 348 kts | 296° |
| 2026-04-21 19:16 | 63.01961 | -11.94013 | 26644 ft | 348 kts | 296° |
| 2026-04-21 19:16 | 63.03047 | -11.99794 | 26645 ft | 348 kts | 296° |
| 2026-04-21 19:17 | 63.05198 | -12.11291 | 26629 ft | 349 kts | 296° |
| 2026-04-21 19:17 | 63.06282 | -12.17114 | 26625 ft | 349 kts | 296° |
| 2026-04-21 19:17 | 63.07359 | -12.22911 | 26623 ft | 349 kts | 296° |
| 2026-04-21 19:18 | 63.08431 | -12.28700 | 26630 ft | 349 kts | 296° |
| 2026-04-21 19:18 | 63.09484 | -12.34402 | 26624 ft | 349 kts | 296° |
| 2026-04-21 19:18 | 63.10527 | -12.40068 | 26628 ft | 349 kts | 296° |
| 2026-04-21 19:18 | 63.11578 | -12.45793 | 26633 ft | 349 kts | 296° |
| 2026-04-21 19:19 | 63.12629 | -12.51536 | 26637 ft | 349 kts | 296° |
| 2026-04-21 19:19 | 63.13677 | -12.57280 | 26634 ft | 349 kts | 296° |
| 2026-04-21 19:19 | 63.14718 | -12.63003 | 26630 ft | 349 kts | 296° |
| 2026-04-21 19:19 | 63.15743 | -12.68648 | 26625 ft | 350 kts | 295° |
| 2026-04-21 19:20 | 63.16754 | -12.74243 | 26628 ft | 350 kts | 296° |
| 2026-04-21 19:20 | 63.17768 | -12.79862 | 26628 ft | 350 kts | 295° |
| 2026-04-21 19:20 | 63.18792 | -12.85557 | 26624 ft | 350 kts | 295° |
| 2026-04-21 19:20 | 63.19771 | -12.91017 | 26626 ft | 350 kts | 295° |
| 2026-04-21 19:21 | 63.20784 | -12.96682 | 26617 ft | 350 kts | 295° |
| 2026-04-21 19:21 | 63.21830 | -13.02544 | 26622 ft | 350 kts | 296° |
| 2026-04-21 19:21 | 63.22825 | -13.08141 | 26620 ft | 350 kts | 296° |
| 2026-04-21 19:21 | 63.23835 | -13.13844 | 26609 ft | 350 kts | 296° |
| 2026-04-21 19:22 | 63.24844 | -13.19556 | 26615 ft | 350 kts | 296° |
| 2026-04-21 19:22 | 63.25850 | -13.25266 | 26609 ft | 350 kts | 296° |
| 2026-04-21 19:22 | 63.26846 | -13.30930 | 26615 ft | 350 kts | 296° |
| 2026-04-21 19:22 | 63.27848 | -13.36658 | 26612 ft | 350 kts | 296° |
| 2026-04-21 19:23 | 63.28855 | -13.42422 | 26602 ft | 350 kts | 296° |
| 2026-04-21 19:23 | 63.29869 | -13.48242 | 26611 ft | 350 kts | 296° |
| 2026-04-21 19:23 | 63.30888 | -13.54114 | 26608 ft | 350 kts | 296° |
| 2026-04-21 19:23 | 63.31876 | -13.59826 | 26607 ft | 351 kts | 296° |
| 2026-04-21 19:24 | 63.32863 | -13.65545 | 26614 ft | 351 kts | 295° |
| 2026-04-21 19:24 | 63.33814 | -13.71076 | 26605 ft | 351 kts | 295° |
| 2026-04-21 19:24 | 63.34805 | -13.76856 | 26601 ft | 351 kts | 295° |
| 2026-04-21 19:24 | 63.35820 | -13.82795 | 26600 ft | 351 kts | 295° |
| 2026-04-21 19:25 | 63.36814 | -13.88626 | 26612 ft | 351 kts | 295° |
| 2026-04-21 19:25 | 63.37803 | -13.94444 | 26600 ft | 351 kts | 295° |
| 2026-04-21 19:25 | 63.38789 | -14.00270 | 26600 ft | 351 kts | 295° |
| 2026-04-21 19:25 | 63.39784 | -14.06156 | 26607 ft | 351 kts | 295° |
| 2026-04-21 19:26 | 63.40783 | -14.12091 | 26606 ft | 351 kts | 295° |
| 2026-04-21 19:26 | 63.41774 | -14.17999 | 26601 ft | 351 kts | 295° |
| 2026-04-21 19:26 | 63.42768 | -14.23947 | 26607 ft | 351 kts | 295° |
| 2026-04-21 19:26 | 63.43440 | -14.27972 | 26598 ft | 351 kts | 295° |
| 2026-04-21 19:27 | 63.44757 | -14.35893 | 26601 ft | 352 kts | 295° |
| 2026-04-21 19:27 | 63.45757 | -14.41927 | 26599 ft | 352 kts | 295° |
| 2026-04-21 19:27 | 63.46748 | -14.47928 | 26594 ft | 352 kts | 295° |
| 2026-04-21 19:27 | 63.47742 | -14.53971 | 26600 ft | 352 kts | 295° |
| 2026-04-21 19:28 | 63.48719 | -14.59924 | 26602 ft | 352 kts | 295° |
| 2026-04-21 19:28 | 63.49371 | -14.63910 | 26603 ft | 352 kts | 295° |
| 2026-04-21 19:28 | 63.50620 | -14.71570 | 26592 ft | 352 kts | 294° |
| 2026-04-21 19:28 | 63.51561 | -14.77360 | 26587 ft | 353 kts | 294° |
| 2026-04-21 19:29 | 63.52535 | -14.83370 | 26593 ft | 353 kts | 294° |
| 2026-04-21 19:29 | 63.53523 | -14.89494 | 26594 ft | 353 kts | 294° |
| 2026-04-21 19:29 | 63.54500 | -14.95563 | 26591 ft | 353 kts | 294° |
| 2026-04-21 19:29 | 63.55480 | -15.01677 | 26590 ft | 353 kts | 294° |
| 2026-04-21 19:30 | 63.56429 | -15.07611 | 26587 ft | 353 kts | 294° |
| 2026-04-21 19:30 | 63.57387 | -15.13626 | 26595 ft | 353 kts | 294° |
| 2026-04-21 19:30 | 63.58346 | -15.19665 | 26585 ft | 353 kts | 294° |
| 2026-04-21 19:30 | 63.59295 | -15.25661 | 26589 ft | 353 kts | 294° |
| 2026-04-21 19:31 | 63.60239 | -15.31646 | 26596 ft | 353 kts | 294° |
| 2026-04-21 19:31 | 63.61189 | -15.37684 | 26590 ft | 353 kts | 294° |
| 2026-04-21 19:31 | 63.62127 | -15.43670 | 26585 ft | 353 kts | 294° |
| 2026-04-21 19:31 | 63.63070 | -15.49707 | 26592 ft | 354 kts | 294° |
| 2026-04-21 19:32 | 63.63995 | -15.55652 | 26585 ft | 354 kts | 294° |
| 2026-04-21 19:32 | 63.64934 | -15.61703 | 26594 ft | 354 kts | 294° |
| 2026-04-21 19:32 | 63.65880 | -15.67819 | 26585 ft | 354 kts | 293° |
| 2026-04-21 19:32 | 63.66807 | -15.73837 | 26579 ft | 354 kts | 293° |
| 2026-04-21 19:33 | 63.67418 | -15.77812 | 26582 ft | 354 kts | 293° |
| 2026-04-21 19:33 | 63.68697 | -15.86168 | 26579 ft | 354 kts | 294° |
| 2026-04-21 19:33 | 63.69652 | -15.92425 | 26582 ft | 354 kts | 293° |
| 2026-04-21 19:33 | 63.70607 | -15.98708 | 26585 ft | 354 kts | 294° |
| 2026-04-21 19:34 | 63.71547 | -16.04920 | 26581 ft | 355 kts | 294° |
| 2026-04-21 19:34 | 63.72487 | -16.11146 | 26584 ft | 355 kts | 294° |
| 2026-04-21 19:34 | 63.73405 | -16.17253 | 26572 ft | 355 kts | 293° |
| 2026-04-21 19:34 | 63.74355 | -16.23591 | 26567 ft | 355 kts | 293° |
| 2026-04-21 19:35 | 63.75273 | -16.29738 | 26572 ft | 355 kts | 293° |
| 2026-04-21 19:35 | 63.77114 | -16.42136 | 26575 ft | 355 kts | 293° |
| 2026-04-21 19:35 | 63.78045 | -16.48432 | 26562 ft | 355 kts | 293° |
| 2026-04-21 19:36 | 63.78966 | -16.54694 | 26565 ft | 355 kts | 294° |
| 2026-04-21 19:36 | 63.79833 | -16.60975 | 26553 ft | 356 kts | 290° |
| 2026-04-21 19:36 | 63.80448 | -16.67453 | 26554 ft | 359 kts | 283° |
| 2026-04-21 19:36 | 63.80817 | -16.73771 | 26556 ft | 359 kts | 280° |
| 2026-04-21 19:37 | 63.81144 | -16.80231 | 26562 ft | 359 kts | 280° |
| 2026-04-21 19:37 | 63.81475 | -16.86845 | 26573 ft | 358 kts | 280° |
| 2026-04-21 19:37 | 63.81803 | -16.93440 | 26578 ft | 358 kts | 280° |
| 2026-04-21 19:37 | 63.82132 | -17.00103 | 26581 ft | 358 kts | 280° |
| 2026-04-21 19:38 | 63.82451 | -17.06644 | 26578 ft | 358 kts | 279° |
| 2026-04-21 19:38 | 63.82775 | -17.13343 | 26578 ft | 358 kts | 280° |
| 2026-04-21 19:38 | 63.82987 | -17.17765 | 26585 ft | 358 kts | 280° |
| 2026-04-21 19:38 | 63.83402 | -17.26496 | 26574 ft | 358 kts | 280° |
| 2026-04-21 19:39 | 63.83717 | -17.33200 | 26574 ft | 357 kts | 279° |
| 2026-04-21 19:39 | 63.84024 | -17.39788 | 26575 ft | 357 kts | 279° |
| 2026-04-21 19:39 | 63.84329 | -17.46415 | 26571 ft | 358 kts | 279° |
| 2026-04-21 19:39 | 63.84626 | -17.52913 | 26572 ft | 358 kts | 280° |
| 2026-04-21 19:40 | 63.84917 | -17.59382 | 26571 ft | 357 kts | 280° |
| 2026-04-21 19:40 | 63.85210 | -17.65915 | 26554 ft | 357 kts | 278° |
| 2026-04-21 19:40 | 63.85477 | -17.71925 | 26564 ft | 357 kts | 278° |
| 2026-04-21 19:40 | 63.85731 | -17.77720 | 26560 ft | 357 kts | 278° |
| 2026-04-21 19:41 | 63.86010 | -17.84129 | 26563 ft | 357 kts | 279° |
| 2026-04-21 19:41 | 63.86285 | -17.90513 | 26572 ft | 356 kts | 278° |
| 2026-04-21 19:41 | 63.86564 | -17.97044 | 26566 ft | 357 kts | 278° |
| 2026-04-21 19:41 | 63.86830 | -18.03364 | 26560 ft | 356 kts | 278° |
| 2026-04-21 19:42 | 63.87098 | -18.09796 | 26567 ft | 356 kts | 278° |
| 2026-04-21 19:42 | 63.87365 | -18.16246 | 26569 ft | 356 kts | 278° |
| 2026-04-21 19:42 | 63.87625 | -18.22629 | 26577 ft | 356 kts | 278° |
| 2026-04-21 19:42 | 63.87878 | -18.28889 | 26570 ft | 356 kts | 278° |
| 2026-04-21 19:43 | 63.88131 | -18.35242 | 26569 ft | 356 kts | 278° |
| 2026-04-21 19:43 | 63.88376 | -18.41435 | 26560 ft | 351 kts | 278° |
| 2026-04-21 19:43 | 63.88620 | -18.47710 | 26428 ft | 350 kts | 278° |
| 2026-04-21 19:43 | 63.88860 | -18.53902 | 26204 ft | 351 kts | 279° |
| 2026-04-21 19:44 | 63.89101 | -18.60202 | 25973 ft | 349 kts | 278° |
| 2026-04-21 19:44 | 63.89336 | -18.66422 | 25706 ft | 339 kts | 277° |
| 2026-04-21 19:44 | 63.89550 | -18.72139 | 25392 ft | 333 kts | 278° |
| 2026-04-21 19:44 | 63.89756 | -18.77687 | 25022 ft | 330 kts | 278° |
| 2026-04-21 19:45 | 63.89957 | -18.83177 | 24587 ft | 324 kts | 278° |
| 2026-04-21 19:45 | 63.90166 | -18.88903 | 24010 ft | 320 kts | 278° |
| 2026-04-21 19:45 | 63.90367 | -18.94508 | 23392 ft | 317 kts | 278° |
| 2026-04-21 19:45 | 63.90494 | -18.98067 | 22995 ft | 316 kts | 278° |
| 2026-04-21 19:46 | 63.90754 | -19.05480 | 22180 ft | 312 kts | 277° |
| 2026-04-21 19:46 | 63.90937 | -19.10783 | 21595 ft | 309 kts | 277° |
| 2026-04-21 19:46 | 63.91117 | -19.16024 | 21017 ft | 306 kts | 277° |
| 2026-04-21 19:46 | 63.91288 | -19.21091 | 20468 ft | 303 kts | 277° |
| 2026-04-21 19:47 | 63.91462 | -19.26270 | 19908 ft | 301 kts | 277° |
| 2026-04-21 19:47 | 63.91623 | -19.31123 | 19430 ft | 298 kts | 277° |
| 2026-04-21 19:47 | 63.91786 | -19.36096 | 18989 ft | 296 kts | 277° |
| 2026-04-21 19:47 | 63.91955 | -19.41333 | 18552 ft | 292 kts | 277° |
| 2026-04-21 19:48 | 63.92121 | -19.46504 | 18121 ft | 289 kts | 277° |
| 2026-04-21 19:48 | 63.92278 | -19.51437 | 17705 ft | 286 kts | 277° |
| 2026-04-21 19:48 | 63.92438 | -19.56555 | 17258 ft | 283 kts | 277° |
| 2026-04-21 19:48 | 63.92586 | -19.61313 | 16827 ft | 281 kts | 277° |
| 2026-04-21 19:49 | 63.92732 | -19.66055 | 16427 ft | 278 kts | 276° |
| 2026-04-21 19:49 | 63.92884 | -19.71085 | 15997 ft | 276 kts | 276° |
| 2026-04-21 19:49 | 63.93029 | -19.75883 | 15593 ft | 273 kts | 276° |
| 2026-04-21 19:49 | 63.93152 | -19.80031 | 15268 ft | 271 kts | 276° |
| 2026-04-21 19:50 | 63.93241 | -19.83072 | 15019 ft | 269 kts | 275° |
| 2026-04-21 19:50 | 63.93414 | -19.88989 | 14543 ft | 266 kts | 275° |
| 2026-04-21 19:50 | 63.93543 | -19.93464 | 14173 ft | 263 kts | 275° |
| 2026-04-21 19:50 | 63.93671 | -19.97949 | 13804 ft | 261 kts | 275° |
| 2026-04-21 19:51 | 63.93802 | -20.02627 | 13404 ft | 260 kts | 275° |
| 2026-04-21 19:51 | 63.93934 | -20.07351 | 13002 ft | 259 kts | 275° |
| 2026-04-21 19:51 | 63.94053 | -20.11666 | 12646 ft | 257 kts | 275° |
| 2026-04-21 19:51 | 63.94169 | -20.15943 | 12298 ft | 256 kts | 275° |
| 2026-04-21 19:52 | 63.94246 | -20.18782 | 12065 ft | 255 kts | 275° |
| 2026-04-21 19:52 | 63.94400 | -20.24583 | 11603 ft | 253 kts | 275° |
| 2026-04-21 19:52 | 63.94515 | -20.28930 | 11258 ft | 252 kts | 275° |
| 2026-04-21 19:52 | 63.94635 | -20.33531 | 10897 ft | 250 kts | 275° |
| 2026-04-21 19:53 | 63.94765 | -20.38081 | 10534 ft | 249 kts | 276° |
| 2026-04-21 19:53 | 63.94935 | -20.42531 | 10186 ft | 249 kts | 276° |
| 2026-04-21 19:53 | 63.95101 | -20.46971 | 9850 ft | 247 kts | 276° |
| 2026-04-21 19:53 | 63.95255 | -20.51196 | 9540 ft | 246 kts | 276° |
| 2026-04-21 19:54 | 63.95405 | -20.55374 | 9234 ft | 245 kts | 276° |
| 2026-04-21 19:54 | 63.95555 | -20.59612 | 8927 ft | 243 kts | 276° |
| 2026-04-21 19:54 | 63.95697 | -20.63682 | 8636 ft | 242 kts | 276° |
| 2026-04-21 19:54 | 63.95844 | -20.67904 | 8334 ft | 241 kts | 276° |
| 2026-04-21 19:55 | 63.96198 | -20.72102 | 8017 ft | 239 kts | 292° |
| 2026-04-21 19:55 | 63.97125 | -20.75472 | 7729 ft | 236 kts | 310° |
| 2026-04-21 19:55 | 63.98274 | -20.78529 | 7485 ft | 236 kts | 311° |
| 2026-04-21 19:55 | 63.99497 | -20.81757 | 7284 ft | 236 kts | 311° |
| 2026-04-21 19:56 | 64.00680 | -20.84891 | 7141 ft | 235 kts | 311° |
| 2026-04-21 19:56 | 64.01844 | -20.87983 | 7014 ft | 233 kts | 311° |
| 2026-04-21 19:56 | 64.03042 | -20.91171 | 6847 ft | 233 kts | 311° |
| 2026-04-21 19:56 | 64.04253 | -20.94402 | 6704 ft | 231 kts | 311° |
| 2026-04-21 19:57 | 64.05456 | -20.97613 | 6546 ft | 231 kts | 311° |
| 2026-04-21 19:57 | 64.06602 | -21.00679 | 6394 ft | 231 kts | 311° |
| 2026-04-21 19:57 | 64.07693 | -21.03602 | 6251 ft | 231 kts | 311° |
| 2026-04-21 19:57 | 64.08778 | -21.06512 | 6119 ft | 230 kts | 311° |
| 2026-04-21 19:58 | 64.09847 | -21.09387 | 6003 ft | 229 kts | 311° |
| 2026-04-21 19:58 | 64.11022 | -21.12546 | 5884 ft | 228 kts | 311° |
| 2026-04-21 19:58 | 64.12200 | -21.15719 | 5755 ft | 228 kts | 311° |
| 2026-04-21 19:58 | 64.13342 | -21.18801 | 5638 ft | 227 kts | 310° |
| 2026-04-21 19:59 | 64.14511 | -21.21958 | 5593 ft | 223 kts | 311° |
| 2026-04-21 19:59 | 64.15632 | -21.24990 | 5600 ft | 218 kts | 311° |
| 2026-04-21 19:59 | 64.16688 | -21.27853 | 5607 ft | 215 kts | 311° |
| 2026-04-21 19:59 | 64.17744 | -21.30715 | 5595 ft | 213 kts | 311° |
| 2026-04-21 20:00 | 64.18770 | -21.33501 | 5595 ft | 210 kts | 311° |
| 2026-04-21 20:00 | 64.19785 | -21.36261 | 5593 ft | 209 kts | 311° |
| 2026-04-21 20:00 | 64.20801 | -21.39026 | 5593 ft | 208 kts | 311° |
| 2026-04-21 20:00 | 64.21815 | -21.41789 | 5600 ft | 207 kts | 311° |
| 2026-04-21 20:01 | 64.22811 | -21.44509 | 5595 ft | 206 kts | 311° |
| 2026-04-21 20:01 | 64.23849 | -21.47344 | 5594 ft | 205 kts | 310° |
| 2026-04-21 20:01 | 64.24886 | -21.50184 | 5598 ft | 204 kts | 311° |
| 2026-04-21 20:01 | 64.25932 | -21.53049 | 5598 ft | 204 kts | 311° |
| 2026-04-21 20:02 | 64.26635 | -21.54977 | 5600 ft | 204 kts | 310° |
| 2026-04-21 20:02 | 64.28021 | -21.58783 | 5594 ft | 203 kts | 311° |
| 2026-04-21 20:02 | 64.29047 | -21.61603 | 5597 ft | 203 kts | 311° |
| 2026-04-21 20:02 | 64.30074 | -21.64431 | 5595 ft | 202 kts | 311° |
| 2026-04-21 20:03 | 64.31090 | -21.67232 | 5601 ft | 202 kts | 310° |
| 2026-04-21 20:03 | 64.32086 | -21.69984 | 5600 ft | 202 kts | 310° |
| 2026-04-21 20:03 | 64.33096 | -21.72773 | 5596 ft | 202 kts | 310° |
| 2026-04-21 20:03 | 64.34051 | -21.75678 | 5593 ft | 202 kts | 298° |
| 2026-04-21 20:04 | 64.34351 | -21.79208 | 5610 ft | 202 kts | 269° |
| 2026-04-21 20:04 | 64.34258 | -21.82892 | 5618 ft | 202 kts | 268° |
| 2026-04-21 20:04 | 64.34156 | -21.86447 | 5433 ft | 190 kts | 268° |
| 2026-04-21 20:04 | 64.34058 | -21.89754 | 4972 ft | 192 kts | 268° |
| 2026-04-21 20:05 | 64.33958 | -21.93028 | 4456 ft | 195 kts | 268° |
| 2026-04-21 20:05 | 64.33391 | -21.96039 | 4244 ft | 186 kts | 227° |
| 2026-04-21 20:05 | 64.32100 | -21.97167 | 4233 ft | 168 kts | 183° |
| 2026-04-21 20:05 | 64.30810 | -21.97065 | 4057 ft | 158 kts | 180° |
| 2026-04-21 20:06 | 64.29568 | -21.96888 | 3798 ft | 154 kts | 179° |
| 2026-04-21 20:06 | 64.28355 | -21.96678 | 3556 ft | 146 kts | 179° |
| 2026-04-21 20:06 | 64.27219 | -21.96471 | 3296 ft | 147 kts | 179° |
| 2026-04-21 20:06 | 64.26050 | -21.96251 | 3026 ft | 149 kts | 179° |
| 2026-04-21 20:07 | 64.24848 | -21.96022 | 2734 ft | 144 kts | 179° |
| 2026-04-21 20:07 | 64.23659 | -21.95793 | 2456 ft | 145 kts | 179° |
| 2026-04-21 20:07 | 64.22915 | -21.95650 | 2259 ft | 134 kts | 179° |
| 2026-04-21 20:07 | 64.21587 | -21.95399 | 1956 ft | 125 kts | 179° |
| 2026-04-21 20:08 | 64.20614 | -21.95211 | 1720 ft | 123 kts | 179° |
| 2026-04-21 20:08 | 64.19661 | -21.95030 | 1493 ft | 120 kts | 178° |
| 2026-04-21 20:08 | 64.18722 | -21.94852 | 1271 ft | 118 kts | 178° |
| 2026-04-21 20:08 | 64.17786 | -21.94675 | 1052 ft | 116 kts | 178° |
| 2026-04-21 20:09 | 64.16853 | -21.94498 | 843 ft | 122 kts | 178° |
| 2026-04-21 20:09 | 64.15848 | -21.94307 | 602 ft | 125 kts | 177° |
| 2026-04-21 20:09 | 64.14868 | -21.94131 | 359 ft | 123 kts | 177° |
| 2026-04-21 20:09 | 64.13854 | -21.93921 | 133 ft | 122 kts | 178° |
| 2026-04-21 20:10 | 64.12959 | -21.93764 | 29 ft | 96 kts | 176° |
| 2026-04-21 20:10 | 64.12600 | -21.93701 | 26 ft | 19 kts | 175° |
| 2026-04-21 20:10 | 64.12511 | -21.93681 | 25 ft | 5 kts | 173° |
| 2026-04-21 20:10 | 64.12466 | -21.93666 | 24 ft | 8 kts | 158° |
| 2026-04-21 20:11 | 64.12446 | -21.93501 | 24 ft | 10 kts | 86° |
| 2026-04-21 20:11 | 64.12490 | -21.93429 | 24 ft | 8 kts | 354° |
| 2026-04-21 20:11 | 64.12562 | -21.93443 | 26 ft | 10 kts | 355° |
| 2026-04-21 20:11 | 64.12642 | -21.93459 | 27 ft | 10 kts | 355° |
| 2026-04-21 20:12 | 64.12723 | -21.93472 | 28 ft | 11 kts | 356° |
| 2026-04-21 20:12 | 64.12816 | -21.93488 | 28 ft | 12 kts | 353° |
| 2026-04-21 20:12 | 64.12888 | -21.93505 | 29 ft | 13 kts | 355° |
| 2026-04-21 20:12 | 64.12988 | -21.93573 | 29 ft | 13 kts | 358° |
| 2026-04-21 20:13 | 64.13023 | -21.93530 | 30 ft | 8 kts | 164° |
| 2026-04-21 20:13 | 64.13030 | -21.93480 | 30 ft | 0 kts | 358° |